Portada
METAR-TAF:

METAR-TAF

Aeroports :

Leconfield, Anglaterra

latitud: 53-52-37N, longitud: 0-26-15W, altitud: 7 m

Observació

L'informe es va fer fa 25 minuts, a les 08:50 UTC
Vent 12 kt del Sud/Sud-Oest
Temperatura 17°C
Humitat 77%
Pressió 1019 hPa
Visibilitat 10 km o més

METAR: EGXV 220850Z AUTO 21012KT 9999 OVC021/// 17/13 Q1019

Hora: 10:15 (09:15 UTC)


TAF: manca

Observacions i pronòstics meteorològics de més de 4000 aeroports (METAR i TAF).

Les estacions disponibles són els punts grocs i vermells al mapa.

Posi el ratolí al punt desitjat per veure el nom de l'estació.

Feu clic per veure les observacions i els pronòstics meteorològics.

Per canviar el mapa: feu clic els botons verds amb una creu de color negre per apropar; al botó verd amb un guió per allunyar la imatge; o en les fletxes verdes per a mapes adjacents.


METAR-TAF: